sensor_id;sensor_type;location;lat;lon;timestamp;P1;durP1;ratioP1;P2;durP2;ratioP2
65279;SDS011;51878;55.748;48.742;2022-12-10T00:01:12;1.52;;;1.30;;
65279;SDS011;51878;55.748;48.742;2022-12-10T00:03:40;2.47;;;1.58;;
65279;SDS011;51878;55.748;48.742;2022-12-10T00:06:10;2.15;;;1.75;;
65279;SDS011;51878;55.748;48.742;2022-12-10T00:08:39;2.58;;;1.88;;
65279;SDS011;51878;55.748;48.742;2022-12-10T00:11:07;2.63;;;2.25;;
65279;SDS011;51878;55.748;48.742;2022-12-10T00:13:36;2.97;;;2.10;;
65279;SDS011;51878;55.748;48.742;2022-12-10T00:16:05;3.00;;;1.77;;
65279;SDS011;51878;55.748;48.742;2022-12-10T00:18:33;7.45;;;3.78;;
65279;SDS011;51878;55.748;48.742;2022-12-10T00:21:11;3.05;;;1.67;;
65279;SDS011;51878;55.748;48.742;2022-12-10T00:23:40;2.20;;;1.77;;
65279;SDS011;51878;55.748;48.742;2022-12-10T00:26:18;4.47;;;2.28;;
65279;SDS011;51878;55.748;48.742;2022-12-10T00:28:46;2.47;;;1.90;;
65279;SDS011;51878;55.748;48.742;2022-12-10T00:31:19;4.82;;;2.10;;
65279;SDS011;51878;55.748;48.742;2022-12-10T00:33:48;2.42;;;1.75;;
65279;SDS011;51878;55.748;48.742;2022-12-10T00:36:17;2.15;;;1.85;;
65279;SDS011;51878;55.748;48.742;2022-12-10T00:38:47;3.05;;;1.83;;
65279;SDS011;51878;55.748;48.742;2022-12-10T00:41:15;3.58;;;1.98;;
65279;SDS011;51878;55.748;48.742;2022-12-10T00:43:44;2.53;;;1.95;;
65279;SDS011;51878;55.748;48.742;2022-12-10T00:46:12;2.85;;;1.55;;
65279;SDS011;51878;55.748;48.742;2022-12-10T00:48:41;3.15;;;2.17;;
65279;SDS011;51878;55.748;48.742;2022-12-10T00:51:13;2.55;;;1.90;;
65279;SDS011;51878;55.748;48.742;2022-12-10T00:53:42;2.92;;;1.88;;
65279;SDS011;51878;55.748;48.742;2022-12-10T00:56:12;3.47;;;2.53;;
65279;SDS011;51878;55.748;48.742;2022-12-10T00:58:41;2.03;;;1.55;;
65279;SDS011;51878;55.748;48.742;2022-12-10T01:01:13;1.67;;;1.42;;
65279;SDS011;51878;55.748;48.742;2022-12-10T01:03:44;3.70;;;2.00;;
65279;SDS011;51878;55.748;48.742;2022-12-10T01:06:28;2.72;;;1.98;;
65279;SDS011;51878;55.748;48.742;2022-12-10T01:09:04;2.83;;;2.15;;
65279;SDS011;51878;55.748;48.742;2022-12-10T01:11:34;3.83;;;2.17;;
65279;SDS011;51878;55.748;48.742;2022-12-10T01:14:04;5.43;;;1.85;;
65279;SDS011;51878;55.748;48.742;2022-12-10T01:16:32;7.95;;;3.13;;
65279;SDS011;51878;55.748;48.742;2022-12-10T01:19:00;3.28;;;1.40;;
65279;SDS011;51878;55.748;48.742;2022-12-10T01:21:28;7.07;;;2.25;;
65279;SDS011;51878;55.748;48.742;2022-12-10T01:23:56;3.58;;;1.83;;
65279;SDS011;51878;55.748;48.742;2022-12-10T01:26:25;2.97;;;2.20;;
65279;SDS011;51878;55.748;48.742;2022-12-10T01:28:54;3.78;;;2.20;;
65279;SDS011;51878;55.748;48.742;2022-12-10T01:31:23;8.43;;;2.17;;
65279;SDS011;51878;55.748;48.742;2022-12-10T01:33:52;2.75;;;1.80;;
65279;SDS011;51878;55.748;48.742;2022-12-10T01:36:21;2.53;;;1.95;;
65279;SDS011;51878;55.748;48.742;2022-12-10T01:38:50;3.15;;;2.30;;
65279;SDS011;51878;55.748;48.742;2022-12-10T01:41:22;3.50;;;2.40;;
65279;SDS011;51878;55.748;48.742;2022-12-10T01:46:35;3.17;;;1.95;;
65279;SDS011;51878;55.748;48.742;2022-12-10T01:49:05;2.42;;;2.03;;
65279;SDS011;51878;55.748;48.742;2022-12-10T01:51:34;1.42;;;1.33;;
65279;SDS011;51878;55.748;48.742;2022-12-10T01:54:06;2.90;;;1.88;;
65279;SDS011;51878;55.748;48.742;2022-12-10T01:56:37;2.97;;;1.92;;
65279;SDS011;51878;55.748;48.742;2022-12-10T01:59:07;3.33;;;2.35;;
65279;SDS011;51878;55.748;48.742;2022-12-10T02:10:08;3.20;;;2.15;;
65279;SDS011;51878;55.748;48.742;2022-12-10T02:15:25;3.85;;;2.00;;
65279;SDS011;51878;55.748;48.742;2022-12-10T02:18:03;2.03;;;1.85;;
65279;SDS011;51878;55.748;48.742;2022-12-10T02:20:33;2.28;;;1.80;;
65279;SDS011;51878;55.748;48.742;2022-12-10T02:23:08;3.10;;;2.20;;
65279;SDS011;51878;55.748;48.742;2022-12-10T02:25:41;2.88;;;2.00;;
65279;SDS011;51878;55.748;48.742;2022-12-10T02:31:03;2.72;;;1.95;;
65279;SDS011;51878;55.748;48.742;2022-12-10T02:33:32;4.68;;;1.80;;
65279;SDS011;51878;55.748;48.742;2022-12-10T02:36:04;5.95;;;3.08;;
65279;SDS011;51878;55.748;48.742;2022-12-10T02:38:34;3.67;;;1.90;;
65279;SDS011;51878;55.748;48.742;2022-12-10T02:41:06;3.08;;;2.47;;
65279;SDS011;51878;55.748;48.742;2022-12-10T02:43:39;7.13;;;2.20;;
65279;SDS011;51878;55.748;48.742;2022-12-10T02:46:08;2.20;;;1.50;;
65279;SDS011;51878;55.748;48.742;2022-12-10T02:48:35;2.65;;;2.15;;
65279;SDS011;51878;55.748;48.742;2022-12-10T02:51:03;3.70;;;2.45;;
65279;SDS011;51878;55.748;48.742;2022-12-10T02:53:30;4.63;;;2.47;;
65279;SDS011;51878;55.748;48.742;2022-12-10T03:04:28;2.38;;;1.75;;
65279;SDS011;51878;55.748;48.742;2022-12-10T03:07:09;4.60;;;2.85;;
65279;SDS011;51878;55.748;48.742;2022-12-10T03:09:54;5.60;;;2.90;;
65279;SDS011;51878;55.748;48.742;2022-12-10T03:12:37;4.32;;;2.47;;
65279;SDS011;51878;55.748;48.742;2022-12-10T03:15:08;3.35;;;2.58;;
65279;SDS011;51878;55.748;48.742;2022-12-10T03:17:40;2.97;;;1.98;;
65279;SDS011;51878;55.748;48.742;2022-12-10T03:20:11;4.68;;;3.20;;
65279;SDS011;51878;55.748;48.742;2022-12-10T03:22:40;4.68;;;2.50;;
65279;SDS011;51878;55.748;48.742;2022-12-10T03:25:14;5.20;;;3.38;;
65279;SDS011;51878;55.748;48.742;2022-12-10T03:27:46;5.75;;;2.90;;
65279;SDS011;51878;55.748;48.742;2022-12-10T03:30:16;5.88;;;2.83;;
65279;SDS011;51878;55.748;48.742;2022-12-10T03:32:43;5.95;;;3.47;;
65279;SDS011;51878;55.748;48.742;2022-12-10T03:35:12;7.00;;;2.70;;
65279;SDS011;51878;55.748;48.742;2022-12-10T03:37:40;4.53;;;2.65;;
65279;SDS011;51878;55.748;48.742;2022-12-10T03:40:08;4.47;;;2.70;;
65279;SDS011;51878;55.748;48.742;2022-12-10T03:42:38;5.97;;;2.58;;
65279;SDS011;51878;55.748;48.742;2022-12-10T03:45:07;8.55;;;3.17;;
65279;SDS011;51878;55.748;48.742;2022-12-10T03:47:34;5.80;;;3.38;;
65279;SDS011;51878;55.748;48.742;2022-12-10T03:50:02;6.07;;;3.40;;
65279;SDS011;51878;55.748;48.742;2022-12-10T03:52:29;6.53;;;3.58;;
65279;SDS011;51878;55.748;48.742;2022-12-10T03:54:56;10.27;;;3.30;;
65279;SDS011;51878;55.748;48.742;2022-12-10T03:57:23;5.55;;;2.63;;
65279;SDS011;51878;55.748;48.742;2022-12-10T03:59:57;3.35;;;2.65;;
65279;SDS011;51878;55.748;48.742;2022-12-10T04:02:35;4.38;;;2.67;;
65279;SDS011;51878;55.748;48.742;2022-12-10T04:05:02;5.47;;;3.65;;
65279;SDS011;51878;55.748;48.742;2022-12-10T04:07:30;4.97;;;3.05;;
65279;SDS011;51878;55.748;48.742;2022-12-10T04:09:57;8.95;;;3.72;;
65279;SDS011;51878;55.748;48.742;2022-12-10T04:12:26;7.30;;;3.80;;
65279;SDS011;51878;55.748;48.742;2022-12-10T04:14:53;3.40;;;2.80;;
65279;SDS011;51878;55.748;48.742;2022-12-10T04:17:38;6.13;;;2.95;;
65279;SDS011;51878;55.748;48.742;2022-12-10T04:20:05;6.90;;;3.80;;
65279;SDS011;51878;55.748;48.742;2022-12-10T04:22:52;7.82;;;3.28;;
65279;SDS011;51878;55.748;48.742;2022-12-10T04:25:38;5.18;;;3.08;;
65279;SDS011;51878;55.748;48.742;2022-12-10T04:28:23;7.97;;;3.83;;
65279;SDS011;51878;55.748;48.742;2022-12-10T04:30:50;4.88;;;2.80;;
65279;SDS011;51878;55.748;48.742;2022-12-10T04:33:17;5.57;;;3.58;;
65279;SDS011;51878;55.748;48.742;2022-12-10T04:35:44;6.45;;;3.30;;
65279;SDS011;51878;55.748;48.742;2022-12-10T04:38:11;5.57;;;3.38;;
65279;SDS011;51878;55.748;48.742;2022-12-10T04:40:38;8.90;;;2.50;;
65279;SDS011;51878;55.748;48.742;2022-12-10T04:43:05;8.98;;;3.42;;
65279;SDS011;51878;55.748;48.742;2022-12-10T04:45:33;6.47;;;3.35;;
65279;SDS011;51878;55.748;48.742;2022-12-10T04:48:02;5.57;;;3.58;;
65279;SDS011;51878;55.748;48.742;2022-12-10T04:50:30;10.63;;;3.75;;
65279;SDS011;51878;55.748;48.742;2022-12-10T04:52:57;6.05;;;4.20;;
65279;SDS011;51878;55.748;48.742;2022-12-10T04:55:24;5.25;;;3.08;;
65279;SDS011;51878;55.748;48.742;2022-12-10T04:57:51;10.00;;;3.63;;
65279;SDS011;51878;55.748;48.742;2022-12-10T05:00:18;6.32;;;3.60;;
65279;SDS011;51878;55.748;48.742;2022-12-10T05:02:47;14.27;;;3.95;;
65279;SDS011;51878;55.748;48.742;2022-12-10T05:05:15;4.43;;;2.85;;
65279;SDS011;51878;55.748;48.742;2022-12-10T05:07:42;5.18;;;3.03;;
65279;SDS011;51878;55.748;48.742;2022-12-10T05:10:09;5.40;;;2.85;;
65279;SDS011;51878;55.748;48.742;2022-12-10T05:12:41;8.75;;;3.38;;
65279;SDS011;51878;55.748;48.742;2022-12-10T05:15:08;10.75;;;4.30;;
65279;SDS011;51878;55.748;48.742;2022-12-10T05:17:35;5.28;;;3.70;;
65279;SDS011;51878;55.748;48.742;2022-12-10T05:20:02;4.50;;;3.13;;
65279;SDS011;51878;55.748;48.742;2022-12-10T05:22:30;5.53;;;4.00;;
65279;SDS011;51878;55.748;48.742;2022-12-10T05:25:15;4.35;;;3.22;;
65279;SDS011;51878;55.748;48.742;2022-12-10T05:27:42;6.28;;;3.75;;
65279;SDS011;51878;55.748;48.742;2022-12-10T05:30:10;6.15;;;3.83;;
65279;SDS011;51878;55.748;48.742;2022-12-10T05:32:37;4.65;;;3.60;;
65279;SDS011;51878;55.748;48.742;2022-12-10T05:35:04;6.93;;;3.63;;
65279;SDS011;51878;55.748;48.742;2022-12-10T05:37:32;6.00;;;2.90;;
65279;SDS011;51878;55.748;48.742;2022-12-10T05:39:59;4.43;;;3.45;;
65279;SDS011;51878;55.748;48.742;2022-12-10T05:42:28;5.47;;;3.42;;
65279;SDS011;51878;55.748;48.742;2022-12-10T05:44:55;6.68;;;3.90;;
65279;SDS011;51878;55.748;48.742;2022-12-10T05:47:22;5.20;;;3.13;;
65279;SDS011;51878;55.748;48.742;2022-12-10T05:49:49;5.55;;;3.25;;
65279;SDS011;51878;55.748;48.742;2022-12-10T05:52:18;4.65;;;3.53;;
65279;SDS011;51878;55.748;48.742;2022-12-10T05:54:45;3.83;;;2.55;;
65279;SDS011;51878;55.748;48.742;2022-12-10T05:57:12;6.45;;;3.22;;
65279;SDS011;51878;55.748;48.742;2022-12-10T05:59:39;5.10;;;3.47;;
65279;SDS011;51878;55.748;48.742;2022-12-10T06:02:06;5.72;;;2.83;;
65279;SDS011;51878;55.748;48.742;2022-12-10T06:04:33;9.25;;;3.67;;
65279;SDS011;51878;55.748;48.742;2022-12-10T06:07:00;8.95;;;4.63;;
65279;SDS011;51878;55.748;48.742;2022-12-10T06:09:29;6.57;;;4.20;;
65279;SDS011;51878;55.748;48.742;2022-12-10T06:11:58;5.07;;;3.60;;
65279;SDS011;51878;55.748;48.742;2022-12-10T06:14:25;5.63;;;3.33;;
65279;SDS011;51878;55.748;48.742;2022-12-10T06:16:51;7.22;;;4.18;;
65279;SDS011;51878;55.748;48.742;2022-12-10T06:19:18;6.72;;;3.92;;
65279;SDS011;51878;55.748;48.742;2022-12-10T06:21:45;6.13;;;3.60;;
65279;SDS011;51878;55.748;48.742;2022-12-10T06:24:17;8.20;;;3.47;;
65279;SDS011;51878;55.748;48.742;2022-12-10T06:26:44;9.82;;;4.13;;
65279;SDS011;51878;55.748;48.742;2022-12-10T06:29:11;6.30;;;3.58;;
65279;SDS011;51878;55.748;48.742;2022-12-10T06:31:38;5.95;;;3.28;;
65279;SDS011;51878;55.748;48.742;2022-12-10T06:34:05;6.60;;;3.40;;
65279;SDS011;51878;55.748;48.742;2022-12-10T06:36:31;5.47;;;3.33;;
65279;SDS011;51878;55.748;48.742;2022-12-10T06:38:59;6.60;;;4.20;;
65279;SDS011;51878;55.748;48.742;2022-12-10T06:41:25;6.40;;;4.20;;
65279;SDS011;51878;55.748;48.742;2022-12-10T06:43:53;9.20;;;4.40;;
65279;SDS011;51878;55.748;48.742;2022-12-10T06:46:20;9.27;;;4.88;;
65279;SDS011;51878;55.748;48.742;2022-12-10T06:48:47;9.07;;;4.45;;
65279;SDS011;51878;55.748;48.742;2022-12-10T06:51:15;19.33;;;3.85;;
65279;SDS011;51878;55.748;48.742;2022-12-10T06:53:43;4.40;;;3.50;;
65279;SDS011;51878;55.748;48.742;2022-12-10T06:56:12;8.75;;;5.50;;
65279;SDS011;51878;55.748;48.742;2022-12-10T06:58:41;9.63;;;4.75;;
65279;SDS011;51878;55.748;48.742;2022-12-10T07:01:12;5.60;;;3.92;;
65279;SDS011;51878;55.748;48.742;2022-12-10T07:03:43;6.20;;;3.63;;
65279;SDS011;51878;55.748;48.742;2022-12-10T07:06:10;11.40;;;5.22;;
65279;SDS011;51878;55.748;48.742;2022-12-10T07:08:39;8.70;;;4.45;;
65279;SDS011;51878;55.748;48.742;2022-12-10T07:11:07;7.15;;;4.43;;
65279;SDS011;51878;55.748;48.742;2022-12-10T07:13:36;7.82;;;4.47;;
65279;SDS011;51878;55.748;48.742;2022-12-10T07:16:11;8.43;;;4.32;;
65279;SDS011;51878;55.748;48.742;2022-12-10T07:18:41;9.52;;;5.47;;
65279;SDS011;51878;55.748;48.742;2022-12-10T07:21:15;12.93;;;4.25;;
65279;SDS011;51878;55.748;48.742;2022-12-10T07:23:48;30.23;;;5.20;;
65279;SDS011;51878;55.748;48.742;2022-12-10T07:26:34;8.85;;;4.75;;
65279;SDS011;51878;55.748;48.742;2022-12-10T07:29:03;6.63;;;4.35;;
65279;SDS011;51878;55.748;48.742;2022-12-10T07:31:31;9.38;;;5.40;;
65279;SDS011;51878;55.748;48.742;2022-12-10T07:33:59;10.60;;;5.15;;
65279;SDS011;51878;55.748;48.742;2022-12-10T07:36:26;11.30;;;5.80;;
65279;SDS011;51878;55.748;48.742;2022-12-10T07:38:54;10.77;;;5.18;;
65279;SDS011;51878;55.748;48.742;2022-12-10T07:41:21;10.40;;;5.82;;
65279;SDS011;51878;55.748;48.742;2022-12-10T07:43:50;11.63;;;6.10;;
65279;SDS011;51878;55.748;48.742;2022-12-10T07:46:18;9.35;;;5.35;;
65279;SDS011;51878;55.748;48.742;2022-12-10T07:48:50;8.10;;;5.47;;
65279;SDS011;51878;55.748;48.742;2022-12-10T07:51:18;11.55;;;6.82;;
65279;SDS011;51878;55.748;48.742;2022-12-10T07:53:47;9.45;;;5.80;;
65279;SDS011;51878;55.748;48.742;2022-12-10T07:56:15;12.15;;;5.78;;
65279;SDS011;51878;55.748;48.742;2022-12-10T07:58:43;8.73;;;6.50;;
65279;SDS011;51878;55.748;48.742;2022-12-10T08:01:20;13.57;;;7.22;;
65279;SDS011;51878;55.748;48.742;2022-12-10T08:03:53;12.90;;;7.43;;
65279;SDS011;51878;55.748;48.742;2022-12-10T08:06:24;8.57;;;5.00;;
65279;SDS011;51878;55.748;48.742;2022-12-10T08:08:53;9.77;;;5.40;;
65279;SDS011;51878;55.748;48.742;2022-12-10T08:11:21;8.18;;;5.88;;
65279;SDS011;51878;55.748;48.742;2022-12-10T08:13:49;11.82;;;6.10;;
65279;SDS011;51878;55.748;48.742;2022-12-10T08:16:22;16.33;;;6.82;;
65279;SDS011;51878;55.748;48.742;2022-12-10T08:18:52;10.80;;;6.68;;
65279;SDS011;51878;55.748;48.742;2022-12-10T08:21:22;13.73;;;9.07;;
65279;SDS011;51878;55.748;48.742;2022-12-10T08:23:50;13.52;;;7.68;;
65279;SDS011;51878;55.748;48.742;2022-12-10T08:26:18;16.92;;;8.00;;
65279;SDS011;51878;55.748;48.742;2022-12-10T08:28:49;21.23;;;9.60;;
65279;SDS011;51878;55.748;48.742;2022-12-10T08:31:18;17.20;;;10.50;;
65279;SDS011;51878;55.748;48.742;2022-12-10T08:33:51;19.55;;;9.57;;
65279;SDS011;51878;55.748;48.742;2022-12-10T08:36:19;18.48;;;8.38;;
65279;SDS011;51878;55.748;48.742;2022-12-10T08:38:46;15.20;;;9.43;;
65279;SDS011;51878;55.748;48.742;2022-12-10T08:41:14;17.45;;;10.15;;
65279;SDS011;51878;55.748;48.742;2022-12-10T08:43:48;14.32;;;8.30;;
65279;SDS011;51878;55.748;48.742;2022-12-10T08:46:19;15.80;;;7.40;;
65279;SDS011;51878;55.748;48.742;2022-12-10T08:48:51;15.07;;;7.75;;
65279;SDS011;51878;55.748;48.742;2022-12-10T08:51:19;16.27;;;9.15;;
65279;SDS011;51878;55.748;48.742;2022-12-10T08:53:53;11.20;;;7.65;;
65279;SDS011;51878;55.748;48.742;2022-12-10T08:56:40;18.08;;;9.23;;
65279;SDS011;51878;55.748;48.742;2022-12-10T08:59:07;16.98;;;9.95;;
65279;SDS011;51878;55.748;48.742;2022-12-10T09:01:34;19.08;;;7.78;;
65279;SDS011;51878;55.748;48.742;2022-12-10T09:04:01;12.43;;;7.40;;
65279;SDS011;51878;55.748;48.742;2022-12-10T09:06:28;17.45;;;10.88;;
65279;SDS011;51878;55.748;48.742;2022-12-10T09:08:56;14.32;;;9.20;;
65279;SDS011;51878;55.748;48.742;2022-12-10T09:11:36;14.00;;;9.40;;
65279;SDS011;51878;55.748;48.742;2022-12-10T09:14:05;16.27;;;10.30;;
65279;SDS011;51878;55.748;48.742;2022-12-10T09:16:40;20.23;;;12.00;;
65279;SDS011;51878;55.748;48.742;2022-12-10T09:19:07;17.45;;;10.05;;
65279;SDS011;51878;55.748;48.742;2022-12-10T09:21:41;13.63;;;7.70;;
65279;SDS011;51878;55.748;48.742;2022-12-10T09:24:08;19.52;;;10.02;;
65279;SDS011;51878;55.748;48.742;2022-12-10T09:26:35;11.57;;;7.13;;
65279;SDS011;51878;55.748;48.742;2022-12-10T09:29:06;14.77;;;8.30;;
65279;SDS011;51878;55.748;48.742;2022-12-10T09:31:41;13.35;;;8.48;;
65279;SDS011;51878;55.748;48.742;2022-12-10T09:34:15;12.48;;;8.57;;
65279;SDS011;51878;55.748;48.742;2022-12-10T09:36:45;16.77;;;9.13;;
65279;SDS011;51878;55.748;48.742;2022-12-10T09:39:16;17.75;;;10.07;;
65279;SDS011;51878;55.748;48.742;2022-12-10T09:47:15;13.05;;;8.40;;
65279;SDS011;51878;55.748;48.742;2022-12-10T09:50:06;13.07;;;7.60;;
65279;SDS011;51878;55.748;48.742;2022-12-10T09:52:43;12.23;;;7.85;;
65279;SDS011;51878;55.748;48.742;2022-12-10T09:55:19;18.27;;;8.52;;
65279;SDS011;51878;55.748;48.742;2022-12-10T09:57:52;17.77;;;10.77;;
65279;SDS011;51878;55.748;48.742;2022-12-10T10:00:21;15.95;;;9.05;;
65279;SDS011;51878;55.748;48.742;2022-12-10T10:03:12;17.60;;;9.40;;
65279;SDS011;51878;55.748;48.742;2022-12-10T10:05:45;12.23;;;7.75;;
65279;SDS011;51878;55.748;48.742;2022-12-10T10:08:59;13.57;;;8.43;;
65279;SDS011;51878;55.748;48.742;2022-12-10T10:11:40;10.13;;;6.07;;
65279;SDS011;51878;55.748;48.742;2022-12-10T10:14:24;13.52;;;7.97;;
65279;SDS011;51878;55.748;48.742;2022-12-10T10:17:02;13.60;;;7.95;;
65279;SDS011;51878;55.748;48.742;2022-12-10T10:19:38;11.05;;;6.05;;
65279;SDS011;51878;55.748;48.742;2022-12-10T10:25:17;10.35;;;7.90;;
65279;SDS011;51878;55.748;48.742;2022-12-10T10:27:45;13.50;;;9.10;;
65279;SDS011;51878;55.748;48.742;2022-12-10T10:30:26;13.20;;;8.10;;
65279;SDS011;51878;55.748;48.742;2022-12-10T10:33:11;16.48;;;8.63;;
65279;SDS011;51878;55.748;48.742;2022-12-10T10:38:18;13.23;;;7.50;;
65279;SDS011;51878;55.748;48.742;2022-12-10T10:40:49;12.80;;;8.75;;
65279;SDS011;51878;55.748;48.742;2022-12-10T10:43:40;10.05;;;6.72;;
65279;SDS011;51878;55.748;48.742;2022-12-10T10:46:12;8.80;;;5.50;;
65279;SDS011;51878;55.748;48.742;2022-12-10T10:49:29;16.02;;;8.20;;
65279;SDS011;51878;55.748;48.742;2022-12-10T10:51:59;11.32;;;7.57;;
65279;SDS011;51878;55.748;48.742;2022-12-10T10:57:11;14.50;;;7.70;;
65279;SDS011;51878;55.748;48.742;2022-12-10T10:59:41;11.50;;;5.93;;
65279;SDS011;51878;55.748;48.742;2022-12-10T11:05:07;11.63;;;8.15;;
65279;SDS011;51878;55.748;48.742;2022-12-10T11:07:40;11.25;;;7.97;;
65279;SDS011;51878;55.748;48.742;2022-12-10T11:12:45;12.80;;;7.53;;
65279;SDS011;51878;55.748;48.742;2022-12-10T11:17:49;18.17;;;9.00;;
65279;SDS011;51878;55.748;48.742;2022-12-10T11:20:20;11.63;;;7.80;;
65279;SDS011;51878;55.748;48.742;2022-12-10T11:22:56;13.20;;;7.75;;
65279;SDS011;51878;55.748;48.742;2022-12-10T11:25:38;15.13;;;9.13;;
65279;SDS011;51878;55.748;48.742;2022-12-10T11:33:50;12.65;;;8.18;;
65279;SDS011;51878;55.748;48.742;2022-12-10T11:39:45;13.73;;;8.90;;
65279;SDS011;51878;55.748;48.742;2022-12-10T11:47:46;12.57;;;6.47;;
65279;SDS011;51878;55.748;48.742;2022-12-10T11:50:43;10.27;;;5.95;;
65279;SDS011;51878;55.748;48.742;2022-12-10T11:55:59;9.63;;;5.18;;
65279;SDS011;51878;55.748;48.742;2022-12-10T12:03:48;15.95;;;8.77;;
65279;SDS011;51878;55.748;48.742;2022-12-10T12:14:57;11.82;;;7.45;;
65279;SDS011;51878;55.748;48.742;2022-12-10T12:17:31;12.90;;;7.97;;
65279;SDS011;51878;55.748;48.742;2022-12-10T12:20:05;14.60;;;9.83;;
65279;SDS011;51878;55.748;48.742;2022-12-10T12:22:48;8.30;;;5.65;;
65279;SDS011;51878;55.748;48.742;2022-12-10T12:25:37;12.82;;;6.32;;
65279;SDS011;51878;55.748;48.742;2022-12-10T12:30:46;12.43;;;6.93;;
65279;SDS011;51878;55.748;48.742;2022-12-10T12:35:58;12.82;;;7.57;;
65279;SDS011;51878;55.748;48.742;2022-12-10T12:38:43;11.90;;;5.85;;
65279;SDS011;51878;55.748;48.742;2022-12-10T12:41:32;7.85;;;5.93;;
65279;SDS011;51878;55.748;48.742;2022-12-10T12:44:12;13.50;;;6.82;;
65279;SDS011;51878;55.748;48.742;2022-12-10T12:50:18;10.05;;;6.38;;
65279;SDS011;51878;55.748;48.742;2022-12-10T12:52:53;12.90;;;8.10;;
65279;SDS011;51878;55.748;48.742;2022-12-10T12:58:09;12.57;;;7.85;;
65279;SDS011;51878;55.748;48.742;2022-12-10T13:00:43;9.07;;;6.75;;
65279;SDS011;51878;55.748;48.742;2022-12-10T13:05:47;10.05;;;6.68;;
65279;SDS011;51878;55.748;48.742;2022-12-10T13:13:29;12.98;;;7.28;;
65279;SDS011;51878;55.748;48.742;2022-12-10T13:24:25;10.80;;;6.65;;
65279;SDS011;51878;55.748;48.742;2022-12-10T13:32:14;22.20;;;6.43;;
65279;SDS011;51878;55.748;48.742;2022-12-10T13:34:43;8.85;;;5.82;;
65279;SDS011;51878;55.748;48.742;2022-12-10T13:40:12;15.50;;;7.95;;
65279;SDS011;51878;55.748;48.742;2022-12-10T13:42:38;11.93;;;6.55;;
65279;SDS011;51878;55.748;48.742;2022-12-10T13:45:26;8.38;;;5.50;;
65279;SDS011;51878;55.748;48.742;2022-12-10T14:00:19;8.25;;;5.53;;
65279;SDS011;51878;55.748;48.742;2022-12-10T14:06:16;11.43;;;7.88;;
65279;SDS011;51878;55.748;48.742;2022-12-10T14:11:59;8.25;;;5.28;;
65279;SDS011;51878;55.748;48.742;2022-12-10T14:14:32;10.48;;;5.68;;
65279;SDS011;51878;55.748;48.742;2022-12-10T14:17:04;15.07;;;6.60;;
65279;SDS011;51878;55.748;48.742;2022-12-10T14:19:36;9.15;;;5.03;;
65279;SDS011;51878;55.748;48.742;2022-12-10T14:22:04;10.77;;;6.95;;
65279;SDS011;51878;55.748;48.742;2022-12-10T14:24:34;8.57;;;5.75;;
65279;SDS011;51878;55.748;48.742;2022-12-10T14:27:14;7.40;;;4.78;;
65279;SDS011;51878;55.748;48.742;2022-12-10T14:29:47;7.68;;;6.32;;
65279;SDS011;51878;55.748;48.742;2022-12-10T14:32:17;9.32;;;5.15;;
65279;SDS011;51878;55.748;48.742;2022-12-10T14:34:51;9.60;;;5.75;;
65279;SDS011;51878;55.748;48.742;2022-12-10T14:37:23;6.80;;;5.03;;
65279;SDS011;51878;55.748;48.742;2022-12-10T14:39:56;10.85;;;6.38;;
65279;SDS011;51878;55.748;48.742;2022-12-10T14:42:24;7.18;;;5.20;;
65279;SDS011;51878;55.748;48.742;2022-12-10T14:44:54;9.88;;;6.88;;
65279;SDS011;51878;55.748;48.742;2022-12-10T14:47:25;10.35;;;6.70;;
65279;SDS011;51878;55.748;48.742;2022-12-10T14:49:54;15.40;;;6.88;;
65279;SDS011;51878;55.748;48.742;2022-12-10T14:52:24;8.43;;;5.40;;
65279;SDS011;51878;55.748;48.742;2022-12-10T14:55:01;9.13;;;5.45;;
65279;SDS011;51878;55.748;48.742;2022-12-10T14:57:37;9.38;;;6.47;;
65279;SDS011;51878;55.748;48.742;2022-12-10T15:00:12;10.98;;;6.05;;
65279;SDS011;51878;55.748;48.742;2022-12-10T15:02:48;6.72;;;5.22;;
65279;SDS011;51878;55.748;48.742;2022-12-10T15:05:27;17.83;;;7.32;;
65279;SDS011;51878;55.748;48.742;2022-12-10T15:08:15;8.88;;;6.00;;
65279;SDS011;51878;55.748;48.742;2022-12-10T15:10:45;7.43;;;3.90;;
65279;SDS011;51878;55.748;48.742;2022-12-10T15:13:21;10.70;;;4.90;;
65279;SDS011;51878;55.748;48.742;2022-12-10T15:16:01;6.20;;;4.45;;
65279;SDS011;51878;55.748;48.742;2022-12-10T15:18:33;8.40;;;4.70;;
65279;SDS011;51878;55.748;48.742;2022-12-10T15:23:46;11.80;;;4.53;;
65279;SDS011;51878;55.748;48.742;2022-12-10T15:26:21;7.20;;;4.53;;
65279;SDS011;51878;55.748;48.742;2022-12-10T15:29:14;7.88;;;5.13;;
65279;SDS011;51878;55.748;48.742;2022-12-10T15:32:00;7.88;;;4.90;;
65279;SDS011;51878;55.748;48.742;2022-12-10T15:34:34;6.28;;;3.53;;
65279;SDS011;51878;55.748;48.742;2022-12-10T15:37:11;6.72;;;4.40;;
65279;SDS011;51878;55.748;48.742;2022-12-10T15:39:45;7.03;;;4.80;;
65279;SDS011;51878;55.748;48.742;2022-12-10T15:42:40;8.02;;;4.03;;
65279;SDS011;51878;55.748;48.742;2022-12-10T15:47:49;8.38;;;5.20;;
65279;SDS011;51878;55.748;48.742;2022-12-10T15:50:17;10.60;;;5.28;;
65279;SDS011;51878;55.748;48.742;2022-12-10T15:52:48;10.63;;;5.13;;
65279;SDS011;51878;55.748;48.742;2022-12-10T15:55:19;6.28;;;5.18;;
65279;SDS011;51878;55.748;48.742;2022-12-10T15:57:51;9.35;;;4.93;;
65279;SDS011;51878;55.748;48.742;2022-12-10T16:00:23;27.40;;;4.05;;
65279;SDS011;51878;55.748;48.742;2022-12-10T16:05:26;8.25;;;4.45;;
65279;SDS011;51878;55.748;48.742;2022-12-10T16:08:41;6.47;;;3.85;;
65279;SDS011;51878;55.748;48.742;2022-12-10T16:10:55;7.03;;;4.82;;
65279;SDS011;51878;55.748;48.742;2022-12-10T16:13:30;6.65;;;4.80;;
65279;SDS011;51878;55.748;48.742;2022-12-10T16:16:02;8.50;;;4.05;;
65279;SDS011;51878;55.748;48.742;2022-12-10T16:18:32;10.68;;;5.18;;
65279;SDS011;51878;55.748;48.742;2022-12-10T16:21:06;5.80;;;3.58;;
65279;SDS011;51878;55.748;48.742;2022-12-10T16:23:34;9.52;;;4.13;;
65279;SDS011;51878;55.748;48.742;2022-12-10T16:26:39;7.93;;;4.18;;
65279;SDS011;51878;55.748;48.742;2022-12-10T16:29:02;8.32;;;5.07;;
65279;SDS011;51878;55.748;48.742;2022-12-10T16:31:30;7.03;;;4.30;;
65279;SDS011;51878;55.748;48.742;2022-12-10T16:33:57;6.88;;;4.65;;
65279;SDS011;51878;55.748;48.742;2022-12-10T16:36:25;6.03;;;3.40;;
65279;SDS011;51878;55.748;48.742;2022-12-10T16:38:52;9.02;;;5.85;;
65279;SDS011;51878;55.748;48.742;2022-12-10T16:41:21;10.38;;;5.13;;
65279;SDS011;51878;55.748;48.742;2022-12-10T16:43:50;6.05;;;4.00;;
65279;SDS011;51878;55.748;48.742;2022-12-10T16:46:18;4.97;;;3.33;;
65279;SDS011;51878;55.748;48.742;2022-12-10T16:48:45;7.03;;;3.55;;
65279;SDS011;51878;55.748;48.742;2022-12-10T16:51:14;6.43;;;3.83;;
65279;SDS011;51878;55.748;48.742;2022-12-10T16:53:50;5.68;;;4.20;;
65279;SDS011;51878;55.748;48.742;2022-12-10T16:56:17;6.63;;;4.68;;
65279;SDS011;51878;55.748;48.742;2022-12-10T16:58:44;5.03;;;3.85;;
65279;SDS011;51878;55.748;48.742;2022-12-10T17:01:25;9.05;;;3.47;;
65279;SDS011;51878;55.748;48.742;2022-12-10T17:03:59;6.85;;;3.70;;
65279;SDS011;51878;55.748;48.742;2022-12-10T17:06:34;6.15;;;3.58;;
65279;SDS011;51878;55.748;48.742;2022-12-10T17:09:02;9.75;;;4.13;;
65279;SDS011;51878;55.748;48.742;2022-12-10T17:11:36;6.15;;;5.05;;
65279;SDS011;51878;55.748;48.742;2022-12-10T17:16:40;9.10;;;4.97;;
65279;SDS011;51878;55.748;48.742;2022-12-10T17:19:09;4.35;;;3.13;;
65279;SDS011;51878;55.748;48.742;2022-12-10T17:21:38;6.80;;;4.40;;